createdAt,value
2022-12-01T00:01:02.528Z,101825.02
2022-12-01T00:03:32.452Z,101819.45
2022-12-01T00:06:06.610Z,101822.61
2022-12-01T00:08:33.756Z,101818.83
2022-12-01T00:11:08.617Z,101819.19
2022-12-01T00:13:35.464Z,101814.53
2022-12-01T00:16:16.494Z,101813.67
2022-12-01T00:18:43.306Z,101816.83
2022-12-01T00:21:16.997Z,101817.17
2022-12-01T00:23:49.593Z,101810.05
2022-12-01T00:26:16.813Z,101808.86
2022-12-01T00:28:43.470Z,101810.78
2022-12-01T00:31:10.729Z,101812.02
2022-12-01T00:33:37.447Z,101814.45
2022-12-01T00:36:04.505Z,101817.08
2022-12-01T00:38:31.497Z,101815.87
2022-12-01T00:40:58.117Z,101818.65
2022-12-01T00:43:25.054Z,101818.48
2022-12-01T00:45:51.732Z,101816.75
2022-12-01T00:48:19.451Z,101816.23
2022-12-01T00:50:46.085Z,101812.77
2022-12-01T00:53:12.808Z,101812.78
2022-12-01T00:55:40.344Z,101807.77
2022-12-01T00:58:07.591Z,101808.66
2022-12-01T01:00:34.364Z,101810.59
2022-12-01T01:03:01.418Z,101808.02
2022-12-01T01:05:28.089Z,101801.61
2022-12-01T01:07:54.827Z,101798.68
2022-12-01T01:10:22.718Z,101796.79
2022-12-01T01:12:52.066Z,101800.14
2022-12-01T01:15:18.749Z,101797.39
2022-12-01T01:17:45.394Z,101797.94
2022-12-01T01:20:12.472Z,101796.75
2022-12-01T01:22:39.116Z,101799.05
2022-12-01T01:25:06.223Z,101795.94
2022-12-01T01:27:34.419Z,101796.31
2022-12-01T01:30:01.049Z,101799.63
2022-12-01T01:32:27.695Z,101801.36
2022-12-01T01:34:54.371Z,101792.73
2022-12-01T01:37:21.101Z,101796.55
2022-12-01T01:39:47.985Z,101792.73
2022-12-01T01:42:14.816Z,101793.45
2022-12-01T01:44:54.723Z,101798.50
2022-12-01T01:47:26.982Z,101796.80
2022-12-01T01:49:54.617Z,101795.59
2022-12-01T01:52:21.304Z,101797.17
2022-12-01T01:54:49.106Z,101793.72
2022-12-01T01:57:17.976Z,101795.64
2022-12-01T01:59:47.275Z,101793.91
2022-12-01T02:02:14.213Z,101796.02
2022-12-01T02:04:44.277Z,101794.46
2022-12-01T02:07:11.840Z,101794.98
2022-12-01T02:09:38.492Z,101793.09
2022-12-01T02:12:14.134Z,101788.42
2022-12-01T02:14:57.856Z,101791.90
2022-12-01T02:17:40.247Z,101789.98
2022-12-01T02:20:35.815Z,101786.70
2022-12-01T02:23:36.030Z,101790.88
2022-12-01T02:26:36.506Z,101790.19
2022-12-01T02:29:46.747Z,101787.08
2022-12-01T02:32:24.053Z,101785.86
2022-12-01T02:34:59.603Z,101783.79
2022-12-01T02:37:45.043Z,101785.35
2022-12-01T02:40:17.810Z,101786.56
2022-12-01T02:42:51.106Z,101788.30
2022-12-01T02:45:23.604Z,101789.87
2022-12-01T08:55:08.301Z,101790.39
2022-12-01T08:57:37.687Z,101796.68
2022-12-01T09:00:04.845Z,101793.08
2022-12-01T09:02:31.634Z,101792.12
2022-12-01T09:04:58.129Z,101794.29
2022-12-01T09:07:26.806Z,101793.72
2022-12-01T09:09:54.196Z,101790.94
2022-12-01T09:12:21.579Z,101785.24
2022-12-01T09:14:48.975Z,101787.17
2022-12-01T09:17:16.124Z,101785.20
2022-12-01T09:19:42.957Z,101782.80
2022-12-01T09:22:09.939Z,101781.27
2022-12-01T09:24:37.456Z,101779.63
2022-12-01T09:27:04.215Z,101778.95
2022-12-01T09:29:31.493Z,101778.67
2022-12-01T09:31:58.398Z,101771.43
2022-12-01T09:34:25.185Z,101772.45
2022-12-01T09:36:54.487Z,101772.91
2022-12-01T09:39:20.949Z,101772.48
2022-12-01T09:41:57.373Z,101771.19
2022-12-01T09:44:33.047Z,101768.23
2022-12-01T09:47:02.610Z,101767.56
2022-12-01T09:49:41.922Z,101771.69
2022-12-01T09:52:14.311Z,101768.61
2022-12-01T09:54:40.979Z,101771.23
2022-12-01T09:57:15.161Z,101767.88
2022-12-01T09:59:42.794Z,101767.28
2022-12-01T10:02:23.968Z,101771.67
2022-12-01T10:04:51.414Z,101766.50
2022-12-01T10:07:24.049Z,101763.96
2022-12-01T10:10:22.512Z,101760.36
2022-12-01T10:12:49.534Z,101757.40
2022-12-01T10:15:24.676Z,101756.59
2022-12-01T10:17:55.152Z,101753.75
2022-12-01T10:20:41.790Z,101754.99
2022-12-01T10:23:18.093Z,101752.83
2022-12-01T10:25:58.651Z,101756.66
2022-12-01T10:28:44.074Z,101753.80
2022-12-01T10:31:19.680Z,101750.55
2022-12-01T10:33:56.335Z,101745.91
2022-12-01T10:36:22.817Z,101741.43
2022-12-01T10:38:49.279Z,101743.98
2022-12-01T10:41:15.675Z,101740.19
2022-12-01T10:43:45.112Z,101734.56
2022-12-01T10:46:24.456Z,101735.51
2022-12-01T10:48:55.479Z,101732.90
2022-12-01T10:51:22.489Z,101732.79
2022-12-01T10:53:49.039Z,101738.71
2022-12-01T15:38:15.661Z,101721.17
2022-12-01T15:41:13.335Z,101718.69
2022-12-01T15:43:38.944Z,101714.71
2022-12-01T15:46:14.362Z,101716.47
2022-12-01T15:48:41.642Z,101714.39
2022-12-01T15:51:20.252Z,101711.79
2022-12-01T15:53:51.263Z,101712.80
2022-12-01T15:56:25.252Z,101708.04
2022-12-01T15:58:51.874Z,101708.34
2022-12-01T16:01:19.723Z,101705.88
2022-12-01T16:03:53.032Z,101700.77
2022-12-01T16:06:19.840Z,101697.81
2022-12-01T16:09:28.251Z,101694.39
2022-12-01T16:12:09.845Z,101692.06
2022-12-01T16:14:36.591Z,101688.37
2022-12-01T16:17:03.997Z,101685.77
2022-12-01T16:19:31.348Z,101680.50
2022-12-01T16:22:10.341Z,101683.98
2022-12-01T16:24:51.238Z,101679.11
2022-12-01T16:27:23.303Z,101676.88
2022-12-01T16:29:57.739Z,101675.84
2022-12-01T16:32:38.295Z,101676.67
2022-12-01T16:35:06.546Z,101672.95
2022-12-01T16:37:33.266Z,101680.59
2022-12-01T16:40:00.088Z,101678.95
2022-12-01T16:42:27.193Z,101679.45
2022-12-01T16:44:54.166Z,101681.17
2022-12-01T16:47:23.037Z,101678.19
2022-12-01T16:49:49.951Z,101679.20
2022-12-01T16:52:42.975Z,101681.54
2022-12-01T16:55:03.577Z,101680.92
2022-12-01T16:57:30.210Z,101682.27
2022-12-01T16:59:56.877Z,101679.40
2022-12-01T17:02:23.569Z,101679.18
2022-12-01T17:04:50.419Z,101678.62
2022-12-01T17:07:17.273Z,101679.06
2022-12-01T17:09:44.043Z,101681.29
2022-12-01T17:12:10.680Z,101676.55
2022-12-01T17:14:37.452Z,101674.64
2022-12-01T17:17:04.131Z,101670.89
2022-12-01T17:19:30.821Z,101674.60
2022-12-01T17:21:57.460Z,101678.80
2022-12-01T17:24:25.937Z,101676.60
2022-12-01T17:26:52.606Z,101674.23
2022-12-01T17:29:19.423Z,101675.21
2022-12-01T17:31:46.209Z,101676.19
2022-12-01T17:34:15.742Z,101675.07
2022-12-01T17:36:44.724Z,101673.77
2022-12-01T17:39:11.427Z,101673.86
2022-12-01T17:41:40.846Z,101668.39
2022-12-01T17:44:07.482Z,101672.17
2022-12-01T17:46:35.768Z,101669.67
2022-12-01T17:49:08.627Z,101667.55
2022-12-01T17:51:36.640Z,101665.04
2022-12-01T17:54:03.325Z,101665.33
2022-12-01T17:56:29.990Z,101668.56
2022-12-01T17:58:56.660Z,101668.33
2022-12-01T18:01:29.766Z,101666.87
2022-12-01T18:03:57.173Z,101669.76
2022-12-01T18:06:25.602Z,101673.84
2022-12-01T18:08:53.157Z,101672.85
2022-12-01T18:11:20.417Z,101670.63
2022-12-01T18:13:48.575Z,101672.59
2022-12-01T18:16:26.745Z,101671.09
2022-12-01T18:18:53.659Z,101673.05
2022-12-01T18:21:22.571Z,101670.33
2022-12-01T18:24:00.008Z,101673.88
2022-12-01T18:26:27.740Z,101670.81
2022-12-01T18:29:08.031Z,101676.95
2022-12-01T18:31:34.793Z,101673.52
2022-12-01T18:34:05.082Z,101673.41
2022-12-01T18:36:33.050Z,101676.93
2022-12-01T18:39:00.560Z,101675.60
2022-12-01T22:57:53.286Z,101662.09
2022-12-01T23:00:22.133Z,101657.22
2022-12-01T23:02:49.744Z,101653.84
2022-12-01T23:05:31.867Z,101657.06
2022-12-01T23:07:58.605Z,101657.48
2022-12-01T23:10:28.640Z,101658.92
2022-12-01T23:12:55.483Z,101660.17
2022-12-01T23:15:36.371Z,101661.78
2022-12-01T23:18:24.652Z,101658.86
2022-12-01T23:20:56.112Z,101656.96
2022-12-01T23:23:27.903Z,101657.48
2022-12-01T23:25:54.639Z,101656.65
2022-12-01T23:28:21.259Z,101649.73
2022-12-01T23:30:49.542Z,101653.40
2022-12-01T23:33:29.700Z,101652.21
2022-12-01T23:36:00.909Z,101654.52
2022-12-01T23:38:42.298Z,101653.68
2022-12-01T23:41:27.749Z,101651.95
2022-12-01T23:43:55.517Z,101652.68
2022-12-01T23:46:23.357Z,101657.30
2022-12-01T23:49:12.119Z,101652.02
2022-12-01T23:51:40.839Z,101651.58
2022-12-01T23:54:16.613Z,101651.55
2022-12-01T23:56:43.265Z,101653.91
2022-12-01T23:59:12.036Z,101652.08
